Time;durP1;ratioP1;P1;durP2;ratioP2;P2;SDS_P1;SDS_P2;PMS_P1;PMS_P2;Temp;Humidity;BMP_temperature;BMP_pressure;BME280_temperature;BME280_humidity;BME280_pressure;Samples;Min_cycle;Max_cycle;Signal;HPM_P1;HPM_P2
2022/07/06 00:01:39;;;;;;;4.75;1.85;;;15.80;99.90;;;;;;5091599;28;20250;-77
2022/07/06 00:04:07;;;;;;;7.97;1.77;;;15.80;99.90;;;;;;5093576;28;20714;-78
2022/07/06 00:06:33;;;;;;;3.05;1.40;;;15.80;99.90;;;;;;5093032;28;20258;-76
2022/07/06 00:09:00;;;;;;;3.35;1.85;;;15.80;99.90;;;;;;5090763;28;20670;-75
2022/07/06 00:11:29;;;;;;;4.45;1.95;;;15.70;99.90;;;;;;5087873;28;20199;-76
2022/07/06 00:13:56;;;;;;;7.07;2.13;;;15.70;99.90;;;;;;5090318;28;20225;-76
2022/07/06 00:16:24;;;;;;;2.30;1.45;;;15.70;99.90;;;;;;5089632;28;20195;-77
2022/07/06 00:18:51;;;;;;;2.38;1.40;;;15.70;99.90;;;;;;5089542;28;20236;-76
2022/07/06 00:21:18;;;;;;;5.15;2.25;;;15.70;99.90;;;;;;5085653;28;20639;-78
2022/07/06 00:23:45;;;;;;;5.80;1.58;;;15.70;99.90;;;;;;5092783;28;20296;-77
2022/07/06 00:26:13;;;;;;;5.80;2.17;;;15.80;99.90;;;;;;5091287;28;20226;-77
2022/07/06 00:28:41;;;;;;;4.70;1.90;;;15.80;99.90;;;;;;5097478;28;20318;-75
2022/07/06 00:31:11;;;;;;;5.00;2.08;;;15.80;99.90;;;;;;5091035;28;20723;-77
2022/07/06 00:33:37;;;;;;;4.28;1.75;;;15.70;99.90;;;;;;5095154;28;20697;-76
2022/07/06 00:36:05;;;;;;;3.85;2.00;;;15.70;99.90;;;;;;5091074;28;20259;-77
2022/07/06 00:38:33;;;;;;;3.67;1.80;;;15.70;99.90;;;;;;5093354;28;20269;-78
2022/07/06 00:41:00;;;;;;;3.55;1.80;;;15.70;99.90;;;;;;5100315;28;20333;-77
2022/07/06 00:43:28;;;;;;;4.05;1.88;;;15.70;99.90;;;;;;5092897;28;20261;-77
2022/07/06 00:45:56;;;;;;;12.45;2.33;;;15.70;99.90;;;;;;5091692;28;20205;-77
2022/07/06 00:48:23;;;;;;;3.45;1.98;;;15.80;99.90;;;;;;5085705;28;20261;-76
2022/07/06 00:50:50;;;;;;;4.88;2.42;;;15.80;99.90;;;;;;5092167;28;20660;-78
2022/07/06 00:53:18;;;;;;;5.10;1.58;;;15.80;99.90;;;;;;5094057;28;20233;-76
2022/07/06 00:55:45;;;;;;;4.28;2.60;;;15.80;99.90;;;;;;5085268;28;20209;-76
2022/07/06 00:58:12;;;;;;;4.93;2.03;;;15.80;99.90;;;;;;5090996;28;20587;-78
2022/07/06 01:00:44;;;;;;;6.32;2.28;;;15.80;99.90;;;;;;5090999;28;20205;-76
2022/07/06 01:03:12;;;;;;;4.65;1.70;;;15.80;99.90;;;;;;5085607;28;20218;-76
2022/07/06 01:05:39;;;;;;;5.40;1.38;;;15.80;99.90;;;;;;5089578;28;20704;-77
2022/07/06 01:08:06;;;;;;;3.53;2.10;;;15.80;99.90;;;;;;5086415;28;20318;-75
2022/07/06 01:10:34;;;;;;;7.18;2.22;;;15.90;99.90;;;;;;5083517;28;20194;-76
2022/07/06 01:13:02;;;;;;;1.73;1.45;;;15.90;99.90;;;;;;5089191;28;20276;-75
2022/07/06 01:15:28;;;;;;;4.22;1.75;;;15.90;99.90;;;;;;5097682;28;20236;-75
2022/07/06 01:17:56;;;;;;;3.70;2.78;;;15.90;99.90;;;;;;5094369;28;20218;-76
2022/07/06 01:20:25;;;;;;;4.88;2.08;;;15.80;99.90;;;;;;5093787;28;20247;-78
2022/07/06 01:22:55;;;;;;;3.28;1.80;;;15.80;99.90;;;;;;5089807;28;20688;-77
2022/07/06 01:25:22;;;;;;;4.00;1.88;;;15.80;99.90;;;;;;5084970;28;20652;-77
2022/07/06 01:27:50;;;;;;;3.83;1.88;;;15.80;99.90;;;;;;5093293;28;20228;-77
2022/07/06 01:30:18;;;;;;;5.90;2.10;;;15.80;99.90;;;;;;5091005;28;20231;-78
2022/07/06 01:32:45;;;;;;;4.78;1.70;;;15.90;99.90;;;;;;5091634;28;20255;-77
2022/07/06 01:35:14;;;;;;;4.07;1.85;;;15.80;99.90;;;;;;5088595;28;20629;-75
2022/07/06 01:37:43;;;;;;;9.23;1.90;;;15.80;99.90;;;;;;5083417;28;20283;-77
2022/07/06 01:40:12;;;;;;;3.33;1.70;;;15.80;99.90;;;;;;5090038;28;20213;-76
2022/07/06 01:42:40;;;;;;;6.15;1.83;;;15.90;99.90;;;;;;5089024;28;20223;-76
2022/07/06 01:45:09;;;;;;;3.60;1.65;;;15.90;99.90;;;;;;5091340;28;20580;-76
2022/07/06 01:47:36;;;;;;;3.65;2.10;;;15.90;99.90;;;;;;5094367;28;20593;-76
2022/07/06 01:50:07;;;;;;;3.22;2.20;;;15.90;99.90;;;;;;5112285;28;20209;-76
2022/07/06 01:52:34;;;;;;;7.53;1.73;;;15.80;99.90;;;;;;5107679;28;20254;-75
2022/07/06 01:55:03;;;;;;;3.85;1.98;;;15.80;99.90;;;;;;5099990;28;20195;-76
2022/07/06 01:57:37;;;;;;;6.20;2.03;;;15.90;99.90;;;;;;5097717;28;20284;-77
2022/07/06 02:00:06;;;;;;;5.72;1.92;;;15.80;99.90;;;;;;5106928;28;20202;-76
2022/07/06 02:02:33;;;;;;;5.55;2.38;;;15.80;99.90;;;;;;5096626;28;20694;-77
2022/07/06 02:05:00;;;;;;;3.87;1.90;;;15.80;99.90;;;;;;5094971;28;20320;-77
2022/07/06 02:07:27;;;;;;;5.18;2.35;;;15.90;99.90;;;;;;5100536;28;21072;-76
2022/07/06 02:09:54;;;;;;;2.72;1.70;;;15.80;99.90;;;;;;5108888;28;20204;-76
2022/07/06 02:12:23;;;;;;;6.07;2.28;;;15.80;99.90;;;;;;5106398;28;20226;-78
2022/07/06 02:14:50;;;;;;;3.38;1.95;;;15.90;99.90;;;;;;5100604;28;20202;-77
2022/07/06 02:17:18;;;;;;;3.92;1.90;;;15.80;99.90;;;;;;5106014;28;20205;-77
2022/07/06 02:19:45;;;;;;;5.57;2.50;;;15.80;99.90;;;;;;5120602;28;20224;-76
2022/07/06 02:22:12;;;;;;;6.40;2.70;;;15.70;99.90;;;;;;5100019;28;20286;-77
2022/07/06 02:24:39;;;;;;;7.63;2.75;;;15.70;99.90;;;;;;5097641;28;20210;-76
2022/07/06 02:27:06;;;;;;;7.32;2.28;;;15.70;99.90;;;;;;5091798;28;20202;-76
2022/07/06 02:29:35;;;;;;;7.57;1.80;;;15.70;99.90;;;;;;5091136;28;20301;-78
2022/07/06 02:32:02;;;;;;;2.05;1.70;;;15.80;99.90;;;;;;5091460;28;20652;-76
2022/07/06 02:34:29;;;;;;;6.35;1.83;;;15.60;99.90;;;;;;5089351;28;20226;-76
2022/07/06 02:36:56;;;;;;;3.17;1.95;;;15.60;99.90;;;;;;5096445;28;20315;-76
2022/07/06 02:39:22;;;;;;;3.85;2.20;;;15.60;99.90;;;;;;5098507;28;20289;-75
2022/07/06 02:41:49;;;;;;;3.13;2.40;;;15.60;99.90;;;;;;5106917;28;20264;-76
2022/07/06 02:44:16;;;;;;;3.38;1.80;;;15.60;99.90;;;;;;5094104;28;20249;-75
2022/07/06 02:46:44;;;;;;;4.25;2.13;;;15.60;99.90;;;;;;5093443;28;20647;-77
2022/07/06 02:49:11;;;;;;;4.65;2.22;;;15.60;99.90;;;;;;5100149;28;20265;-77
2022/07/06 02:51:38;;;;;;;4.20;2.40;;;15.60;99.90;;;;;;5088042;28;20273;-76
2022/07/06 02:54:05;;;;;;;5.32;2.10;;;15.60;99.90;;;;;;5086611;28;20318;-77
2022/07/06 02:56:32;;;;;;;4.50;1.83;;;15.60;99.90;;;;;;5098603;28;20246;-76
2022/07/06 02:58:59;;;;;;;3.45;1.77;;;15.60;99.90;;;;;;5093811;28;20195;-76
2022/07/06 03:01:27;;;;;;;4.88;2.10;;;15.60;99.90;;;;;;5090019;28;20282;-76
2022/07/06 03:03:55;;;;;;;4.28;1.70;;;15.60;99.90;;;;;;5084102;28;20621;-76
2022/07/06 03:06:22;;;;;;;6.68;2.45;;;15.60;99.90;;;;;;5095870;28;20242;-75
2022/07/06 03:08:49;;;;;;;4.50;2.10;;;15.60;99.90;;;;;;5108414;28;20270;-75
2022/07/06 03:11:16;;;;;;;3.97;2.45;;;15.60;99.90;;;;;;5109795;28;20202;-76
2022/07/06 03:13:43;;;;;;;8.02;2.50;;;15.50;99.90;;;;;;5084101;28;20739;-76
2022/07/06 03:16:10;;;;;;;4.70;2.00;;;15.50;99.90;;;;;;5089429;28;20213;-77
2022/07/06 03:18:37;;;;;;;3.75;1.80;;;15.50;99.90;;;;;;5107544;28;20194;-77
2022/07/06 03:21:05;;;;;;;4.40;2.05;;;15.50;99.90;;;;;;5102815;28;20229;-77
2022/07/06 03:23:33;;;;;;;4.95;2.25;;;15.60;99.90;;;;;;5096707;28;20745;-75
2022/07/06 03:26:02;;;;;;;4.85;2.03;;;15.50;99.90;;;;;;5104489;28;20556;-76
2022/07/06 03:28:28;;;;;;;5.15;2.05;;;15.50;99.90;;;;;;5086669;28;20317;-75
2022/07/06 03:30:56;;;;;;;7.80;2.53;;;15.40;99.90;;;;;;5083755;28;20197;-76
2022/07/06 03:33:22;;;;;;;3.50;1.83;;;15.40;99.90;;;;;;5085443;28;20655;-76
2022/07/06 03:35:49;;;;;;;6.10;2.55;;;15.40;99.90;;;;;;5095672;28;20207;-76
2022/07/06 03:38:18;;;;;;;4.55;2.00;;;15.50;99.90;;;;;;5095322;28;20195;-75
2022/07/06 03:40:45;;;;;;;5.20;2.85;;;15.50;99.90;;;;;;5093462;28;20673;-78
2022/07/06 03:43:12;;;;;;;7.38;2.38;;;15.50;99.90;;;;;;5094103;28;20226;-75
2022/07/06 03:45:39;;;;;;;3.88;2.58;;;15.60;99.90;;;;;;5092778;28;20252;-78
2022/07/06 03:48:07;;;;;;;6.00;2.83;;;15.60;99.90;;;;;;5095805;28;20249;-76
2022/07/06 03:50:33;;;;;;;4.13;2.20;;;15.60;99.90;;;;;;5096783;28;20278;-78
2022/07/06 03:53:00;;;;;;;6.10;2.13;;;15.70;99.90;;;;;;5095393;28;20241;-78
2022/07/06 03:55:29;;;;;;;3.78;2.03;;;15.70;99.90;;;;;;5116854;28;20180;-77
2022/07/06 03:58:03;;;;;;;4.00;2.30;;;15.70;99.90;;;;;;5095063;28;20665;-77
2022/07/06 04:00:30;;;;;;;4.35;2.47;;;15.70;99.90;;;;;;5080460;28;20825;-76
2022/07/06 04:02:57;;;;;;;3.63;2.10;;;15.70;99.90;;;;;;5090570;28;20262;-77
2022/07/06 04:05:26;;;;;;;1.88;1.55;;;15.70;99.90;;;;;;5102520;28;20198;-75
2022/07/06 04:07:55;;;;;;;3.25;1.70;;;15.70;99.90;;;;;;5114876;28;20222;-76
2022/07/06 04:10:22;;;;;;;4.38;2.88;;;15.70;99.90;;;;;;5094225;28;20199;-75
2022/07/06 04:12:50;;;;;;;6.53;1.85;;;15.70;99.90;;;;;;5094074;28;20590;-76
2022/07/06 04:15:17;;;;;;;5.53;2.63;;;15.70;99.90;;;;;;5092447;28;20305;-77
2022/07/06 04:17:53;;;;;;;2.92;2.30;;;15.70;99.90;;;;;;5092691;28;20237;-76
2022/07/06 04:20:20;;;;;;;3.88;2.28;;;15.70;99.90;;;;;;5093572;28;20210;-77
2022/07/06 04:22:47;;;;;;;7.70;2.53;;;15.70;99.90;;;;;;5089374;28;20250;-77
2022/07/06 04:25:15;;;;;;;3.22;1.98;;;15.80;99.90;;;;;;5091268;28;20290;-77
2022/07/06 04:27:42;;;;;;;7.28;2.40;;;15.80;99.90;;;;;;5093653;28;20226;-76
2022/07/06 04:30:12;;;;;;;5.03;1.83;;;15.90;99.90;;;;;;5089872;28;20199;-76
2022/07/06 04:32:39;;;;;;;3.70;2.20;;;15.90;99.90;;;;;;5086473;28;20220;-76
2022/07/06 04:35:08;;;;;;;4.25;2.42;;;15.90;99.90;;;;;;5090971;28;20226;-76
2022/07/06 04:37:37;;;;;;;6.85;2.05;;;15.90;99.90;;;;;;5093436;28;20588;-76
2022/07/06 04:40:21;;;;;;;4.35;1.88;;;15.90;99.90;;;;;;5093876;28;20203;-78
2022/07/06 04:42:48;;;;;;;5.35;2.75;;;16.00;99.90;;;;;;5089384;28;20582;-78
2022/07/06 04:45:17;;;;;;;9.38;3.10;;;16.00;99.90;;;;;;5096922;28;20217;-75
2022/07/06 04:47:44;;;;;;;1.65;1.50;;;16.00;99.90;;;;;;5095299;28;20218;-76
2022/07/06 04:50:12;;;;;;;2.95;1.75;;;16.10;99.90;;;;;;5104136;28;20194;-77
2022/07/06 04:52:39;;;;;;;2.83;2.10;;;16.20;99.90;;;;;;5094249;28;20220;-77
2022/07/06 04:55:08;;;;;;;8.93;2.30;;;16.30;99.90;;;;;;5082848;28;20207;-77
2022/07/06 04:57:35;;;;;;;5.93;2.30;;;16.30;99.90;;;;;;5090083;28;20204;-77
2022/07/06 05:00:05;;;;;;;4.53;2.10;;;16.30;99.90;;;;;;5082141;28;20254;-77
2022/07/06 05:02:33;;;;;;;6.30;2.03;;;16.40;99.90;;;;;;5089927;28;20956;-75
2022/07/06 05:05:05;;;;;;;3.25;1.75;;;16.50;99.90;;;;;;5096744;28;20336;-78
2022/07/06 05:07:33;;;;;;;5.28;2.30;;;16.60;99.90;;;;;;5087685;28;20217;-76
2022/07/06 05:10:00;;;;;;;3.83;1.52;;;16.80;99.90;;;;;;5093635;28;20228;-76
2022/07/06 05:12:27;;;;;;;7.63;2.23;;;16.80;99.90;;;;;;5090482;28;20238;-75
2022/07/06 05:14:54;;;;;;;3.33;1.48;;;16.80;99.90;;;;;;5089108;28;20884;-76
2022/07/06 05:17:21;;;;;;;3.03;1.63;;;16.90;99.90;;;;;;5087163;28;20196;-75
2022/07/06 05:19:55;;;;;;;7.03;2.17;;;16.90;99.90;;;;;;5089424;28;20254;-78
2022/07/06 05:22:22;;;;;;;3.97;1.53;;;17.00;99.90;;;;;;5092363;28;20484;-77
2022/07/06 05:24:49;;;;;;;4.10;2.10;;;17.10;99.90;;;;;;5078563;28;20591;-75
2022/07/06 05:27:16;;;;;;;3.77;1.80;;;17.20;99.90;;;;;;5083995;28;20491;-76
2022/07/06 05:29:52;;;;;;;5.00;1.47;;;17.30;99.90;;;;;;5102064;28;20533;-76
2022/07/06 05:32:19;;;;;;;3.70;1.70;;;17.40;99.90;;;;;;5108096;28;20447;-76
2022/07/06 05:34:50;;;;;;;4.53;1.50;;;17.50;99.90;;;;;;5094902;28;20475;-77
2022/07/06 05:37:17;;;;;;;7.43;2.00;;;17.60;99.90;;;;;;5093301;28;20531;-78
2022/07/06 05:39:46;;;;;;;1.40;1.10;;;17.80;99.90;;;;;;5083379;28;20527;-77
2022/07/06 05:42:14;;;;;;;4.73;1.70;;;18.10;99.90;;;;;;5087258;28;20444;-78
2022/07/06 05:44:46;;;;;;;4.77;1.40;;;18.30;99.90;;;;;;5101855;28;20450;-77
2022/07/06 05:50:15;;;;;;;4.63;1.87;;;18.50;99.90;;;;;;5097402;28;20563;-76
2022/07/06 05:52:44;;;;;;;6.20;1.50;;;18.50;99.90;;;;;;5086594;28;20844;-78
2022/07/06 05:55:16;;;;;;;3.27;1.57;;;18.50;99.90;;;;;;5078420;28;20453;-75
2022/07/06 05:57:43;;;;;;;4.03;1.43;;;18.30;99.90;;;;;;5107221;28;20450;-77
2022/07/06 06:00:46;;;;;;;4.63;1.60;;;18.30;99.90;;;;;;5102586;28;20452;-78
2022/07/06 06:03:13;;;;;;;3.30;3.00;;;18.40;99.90;;;;;;5095605;28;20460;-75
2022/07/06 06:05:42;;;;;;;2.83;1.70;;;18.30;99.90;;;;;;5081245;28;20533;-76
2022/07/06 06:08:16;;;;;;;5.30;1.33;;;18.20;99.90;;;;;;5085452;28;20479;-75
2022/07/06 06:10:43;;;;;;;4.70;2.07;;;18.10;99.90;;;;;;5101337;28;20860;-77
2022/07/06 06:13:12;;;;;;;5.00;2.93;;;18.10;99.90;;;;;;5092562;28;20520;-76
2022/07/06 06:15:39;;;;;;;3.03;1.50;;;18.20;99.90;;;;;;5074491;28;20460;-75
2022/07/06 06:18:06;;;;;;;3.20;1.37;;;18.10;99.90;;;;;;5098449;28;20444;-76
2022/07/06 06:20:33;;;;;;;1.43;1.23;;;18.10;99.90;;;;;;5097709;28;20506;-78
2022/07/06 06:23:08;;;;;;;6.30;1.77;;;18.00;99.90;;;;;;5106333;28;20489;-76
2022/07/06 06:25:37;;;;;;;7.50;1.70;;;18.00;99.90;;;;;;5083467;28;20438;-77
2022/07/06 06:28:07;;;;;;;6.73;2.07;;;18.00;99.90;;;;;;5096046;28;20942;-75
2022/07/06 06:30:34;;;;;;;3.70;1.70;;;18.20;99.90;;;;;;5092243;28;20455;-77
2022/07/06 06:33:09;;;;;;;3.27;1.50;;;18.10;99.90;;;;;;5083387;28;20464;-76
2022/07/06 06:35:36;;;;;;;2.43;1.40;;;18.10;99.90;;;;;;5085302;28;20451;-78
2022/07/06 06:38:04;;;;;;;3.93;1.30;;;18.30;99.90;;;;;;5088974;28;20852;-78
2022/07/06 06:40:32;;;;;;;2.80;1.17;;;18.30;99.90;;;;;;5094639;28;20481;-78
2022/07/06 06:42:59;;;;;;;4.30;1.20;;;18.40;99.90;;;;;;5091776;28;20891;-80
2022/07/06 06:45:26;;;;;;;6.10;1.43;;;18.60;99.90;;;;;;5098448;28;20442;-76
2022/07/06 06:47:53;;;;;;;3.10;1.73;;;18.80;99.90;;;;;;5095737;28;20899;-78
2022/07/06 06:50:22;;;;;;;4.37;1.60;;;19.00;99.90;;;;;;5094326;28;20477;-80
2022/07/06 06:52:49;;;;;;;4.40;1.53;;;19.20;99.90;;;;;;5103757;28;20468;-79
2022/07/06 06:55:18;;;;;;;4.23;1.93;;;19.70;99.90;;;;;;5084080;28;20847;-78
2022/07/06 06:57:46;;;;;;;3.53;1.53;;;20.70;99.90;;;;;;5094964;28;20486;-77
2022/07/06 07:00:15;;;;;;;4.33;1.10;;;21.40;98.10;;;;;;5093718;28;20437;-78
2022/07/06 07:02:43;;;;;;;3.20;1.47;;;22.00;96.00;;;;;;5095955;28;20475;-76
2022/07/06 07:05:10;;;;;;;3.47;1.37;;;22.30;94.50;;;;;;5095875;28;20535;-77
2022/07/06 07:07:38;;;;;;;3.90;1.00;;;22.20;94.20;;;;;;5091115;28;20479;-79
2022/07/06 07:10:06;;;;;;;4.23;1.53;;;22.20;93.30;;;;;;5092993;28;20516;-81
2022/07/06 07:12:33;;;;;;;7.73;1.37;;;22.10;93.00;;;;;;5089509;28;20971;-77
2022/07/06 07:15:02;;;;;;;2.70;1.20;;;22.50;92.60;;;;;;5086537;28;20940;-79
2022/07/06 07:17:29;;;;;;;4.57;1.20;;;23.10;91.80;;;;;;5097125;28;20445;-80
2022/07/06 07:19:57;;;;;;;3.87;1.20;;;23.40;91.10;;;;;;5093267;28;20444;-79
2022/07/06 07:22:25;;;;;;;3.27;1.33;;;23.60;90.40;;;;;;5095556;28;20533;-79
2022/07/06 07:24:52;;;;;;;2.70;1.27;;;24.00;89.60;;;;;;5089418;28;21110;-79
2022/07/06 07:27:19;;;;;;;4.20;1.40;;;24.40;89.50;;;;;;5092006;28;20547;-81
2022/07/06 07:29:46;;;;;;;3.40;1.13;;;24.60;87.70;;;;;;5092859;28;20902;-79
2022/07/06 07:32:15;;;;;;;4.80;1.33;;;24.00;87.50;;;;;;5097566;28;20441;-79
2022/07/06 07:34:42;;;;;;;6.90;1.40;;;23.40;88.80;;;;;;5108326;28;20425;-80
2022/07/06 07:37:09;;;;;;;3.53;1.30;;;22.90;90.00;;;;;;5086385;28;20519;-80
2022/07/06 07:39:36;;;;;;;5.03;1.50;;;22.30;90.80;;;;;;5084068;28;20491;-79
2022/07/06 07:42:03;;;;;;;4.60;1.73;;;21.80;91.20;;;;;;5090300;28;20513;-79
2022/07/06 07:44:30;;;;;;;2.57;1.10;;;21.30;91.90;;;;;;5093592;28;20447;-79
2022/07/06 07:46:57;;;;;;;2.90;1.10;;;20.90;92.90;;;;;;5101597;28;20479;-79
2022/07/06 07:49:25;;;;;;;3.53;1.00;;;20.60;93.60;;;;;;5094776;28;20536;-78
2022/07/06 07:51:52;;;;;;;3.00;1.53;;;20.40;94.20;;;;;;5099699;28;20449;-78
2022/07/06 07:54:19;;;;;;;6.20;1.50;;;20.20;94.80;;;;;;5097618;28;20465;-80
2022/07/06 07:56:47;;;;;;;1.83;1.10;;;20.10;95.50;;;;;;5091504;28;20980;-80
2022/07/06 07:59:14;;;;;;;5.20;1.43;;;19.90;95.50;;;;;;5106434;28;20455;-79
2022/07/06 08:01:41;;;;;;;13.17;1.60;;;19.80;96.40;;;;;;5100104;28;20492;-79
2022/07/06 08:04:08;;;;;;;2.93;1.00;;;19.70;96.40;;;;;;5094518;28;20506;-79
2022/07/06 08:06:36;;;;;;;3.87;1.77;;;19.60;95.60;;;;;;5093572;28;20445;-81
2022/07/06 08:09:04;;;;;;;2.00;1.00;;;19.60;95.40;;;;;;5089619;28;20566;-80
2022/07/06 08:11:32;;;;;;;3.70;1.77;;;19.70;96.10;;;;;;5091123;28;20955;-78
2022/07/06 08:13:59;;;;;;;5.70;1.70;;;19.90;96.10;;;;;;5100310;28;20496;-80
2022/07/06 08:16:28;;;;;;;3.67;1.23;;;20.10;95.60;;;;;;5090729;28;20445;-78
2022/07/06 08:18:55;;;;;;;3.23;1.53;;;20.30;95.10;;;;;;5101399;28;20550;-79
2022/07/06 08:21:22;;;;;;;2.80;0.83;;;20.60;94.70;;;;;;5095050;28;20536;-79
2022/07/06 08:23:51;;;;;;;3.83;1.43;;;21.30;93.90;;;;;;5093977;28;20513;-80
2022/07/06 08:26:18;;;;;;;6.33;2.00;;;21.90;92.30;;;;;;5094887;28;21028;-80
2022/07/06 08:28:44;;;;;;;3.30;1.67;;;22.00;91.50;;;;;;5093112;28;20492;-79
2022/07/06 08:31:11;;;;;;;2.70;1.10;;;21.90;91.20;;;;;;5088776;28;20491;-80
2022/07/06 08:33:39;;;;;;;5.20;1.50;;;21.80;90.90;;;;;;5094561;28;20472;-80
2022/07/06 08:36:07;;;;;;;5.30;1.10;;;21.90;90.80;;;;;;5093445;28;20539;-78
2022/07/06 08:38:33;;;;;;;5.53;1.30;;;21.90;90.70;;;;;;5092993;28;20446;-81
2022/07/06 08:41:03;;;;;;;1.37;0.70;;;22.10;90.60;;;;;;5094050;28;20531;-81
2022/07/06 08:43:30;;;;;;;5.40;1.23;;;22.30;89.50;;;;;;5094257;28;20507;-80
2022/07/06 08:45:57;;;;;;;3.43;1.10;;;22.60;88.80;;;;;;5099080;28;20938;-78
2022/07/06 08:48:25;;;;;;;2.63;1.00;;;22.70;88.30;;;;;;5093982;28;20547;-81
2022/07/06 08:50:53;;;;;;;3.77;1.03;;;23.00;87.00;;;;;;5087822;28;20499;-81
2022/07/06 08:53:21;;;;;;;2.80;0.80;;;22.90;86.40;;;;;;5081865;28;20457;-78
2022/07/06 08:55:50;;;;;;;4.03;1.20;;;23.00;86.00;;;;;;5090380;28;20451;-78
2022/07/06 08:58:19;;;;;;;1.77;0.77;;;23.30;85.60;;;;;;5101834;28;20436;-77
2022/07/06 09:00:46;;;;;;;4.30;1.33;;;23.20;84.00;;;;;;5093934;28;20455;-79
2022/07/06 09:03:14;;;;;;;1.90;0.70;;;23.30;83.90;;;;;;5092911;28;20468;-77
2022/07/06 09:05:46;;;;;;;2.60;1.10;;;23.00;85.00;;;;;;5103296;28;20432;-79
2022/07/06 09:08:13;;;;;;;2.73;1.00;;;22.80;85.10;;;;;;5095506;28;20538;-78
2022/07/06 09:10:40;;;;;;;2.27;1.00;;;22.40;85.70;;;;;;5096172;28;20552;-78
2022/07/06 09:13:10;;;;;;;6.43;1.20;;;22.10;86.20;;;;;;5093990;28;20487;-79
2022/07/06 09:15:39;;;;;;;4.03;0.90;;;22.10;86.80;;;;;;5099289;28;20448;-79
2022/07/06 09:18:07;;;;;;;2.77;1.33;;;22.20;85.70;;;;;;5089651;28;20456;-78
2022/07/06 09:20:34;;;;;;;2.37;0.97;;;22.60;85.30;;;;;;5090649;28;20432;-79
2022/07/06 09:23:04;;;;;;;3.00;1.07;;;23.10;84.70;;;;;;5104560;28;20475;-80
2022/07/06 09:25:31;;;;;;;3.03;1.10;;;23.30;83.60;;;;;;5096521;28;20507;-77
2022/07/06 09:28:01;;;;;;;2.73;1.20;;;22.90;83.80;;;;;;5092575;28;20483;-80
2022/07/06 09:30:29;;;;;;;4.93;0.87;;;22.60;85.20;;;;;;5095064;28;20503;-78
2022/07/06 09:32:59;;;;;;;9.93;1.53;;;22.70;85.70;;;;;;5097872;28;21048;-78
2022/07/06 09:35:28;;;;;;;6.53;1.60;;;22.50;87.10;;;;;;5091091;28;20459;-76
2022/07/06 09:38:04;;;;;;;3.40;1.20;;;22.30;88.70;;;;;;5098659;28;20462;-76
2022/07/06 09:40:34;;;;;;;5.03;1.43;;;22.10;89.80;;;;;;5102711;28;20489;-79
2022/07/06 09:43:20;;;;;;;3.77;0.90;;;22.00;90.70;;;;;;5094251;28;20520;-79
2022/07/06 09:45:49;;;;;;;3.00;1.27;;;22.00;90.00;;;;;;5092616;28;20470;-78
2022/07/06 09:48:21;;;;;;;3.03;1.40;;;21.90;90.10;;;;;;5105367;28;20521;-80
2022/07/06 09:50:50;;;;;;;4.13;1.80;;;22.20;89.10;;;;;;5095941;28;20808;-79
2022/07/06 09:53:18;;;;;;;3.03;1.37;;;22.40;88.60;;;;;;5090005;28;20466;-79
2022/07/06 09:55:46;;;;;;;4.07;1.00;;;22.30;87.60;;;;;;5092352;28;20492;-81
2022/07/06 09:58:14;;;;;;;3.10;1.43;;;22.00;87.10;;;;;;5094798;28;20440;-77
2022/07/06 10:00:41;;;;;;;3.57;1.37;;;22.10;87.30;;;;;;5092587;28;20866;-78
2022/07/06 10:03:09;;;;;;;5.23;1.07;;;22.20;86.60;;;;;;5103723;28;20574;-78
2022/07/06 10:05:41;;;;;;;4.00;0.77;;;22.70;86.00;;;;;;5112435;28;20437;-79
2022/07/06 10:08:22;;;;;;;3.63;1.00;;;23.30;84.40;;;;;;5086556;28;20512;-78
2022/07/06 10:10:49;;;;;;;3.03;1.10;;;23.70;82.60;;;;;;5094852;28;20577;-79
2022/07/06 10:13:22;;;;;;;1.60;0.87;;;24.40;81.80;;;;;;5094812;28;20839;-80
2022/07/06 10:15:50;;;;;;;4.70;1.10;;;25.00;78.80;;;;;;5096953;28;20455;-80
2022/07/06 10:18:17;;;;;;;2.50;1.00;;;25.70;76.80;;;;;;5096528;28;20464;-79
2022/07/06 10:20:46;;;;;;;6.07;1.00;;;26.60;75.00;;;;;;5108147;28;20466;-78
2022/07/06 10:23:14;;;;;;;2.20;0.83;;;27.30;72.40;;;;;;5091925;28;20504;-80
2022/07/06 10:25:43;;;;;;;2.17;0.60;;;28.00;70.20;;;;;;5100000;28;20475;-79
2022/07/06 10:28:14;;;;;;;4.10;1.20;;;28.10;69.10;;;;;;5088482;28;20469;-79
2022/07/06 10:30:43;;;;;;;2.43;1.10;;;28.00;68.00;;;;;;5096188;28;20906;-80
2022/07/06 10:33:11;;;;;;;1.57;1.00;;;28.20;67.80;;;;;;5094685;28;20467;-80
2022/07/06 10:35:41;;;;;;;1.60;0.60;;;27.70;67.90;;;;;;5096894;28;20468;-79
2022/07/06 10:38:10;;;;;;;5.87;1.17;;;27.00;69.10;;;;;;5092245;28;20444;-79
2022/07/06 10:43:25;;;;;;;2.20;1.00;;;25.70;70.90;;;;;;5095731;28;20497;-78
2022/07/06 10:45:53;;;;;;;2.60;1.40;;;25.30;73.20;;;;;;5097493;28;20507;-78
2022/07/06 10:48:22;;;;;;;1.10;0.70;;;25.60;73.40;;;;;;5096623;28;20475;-79
2022/07/06 10:50:54;;;;;;;5.90;1.37;;;25.40;74.00;;;;;;5090090;28;21080;-79
2022/07/06 10:53:25;;;;;;;2.50;0.93;;;25.20;74.50;;;;;;5090397;28;20528;-78
2022/07/06 10:55:54;;;;;;;4.23;1.20;;;24.50;76.30;;;;;;5102978;28;20432;-76
2022/07/06 10:58:58;;;;;;;3.37;1.30;;;24.00;77.60;;;;;;5085835;28;20519;-79
2022/07/06 11:01:29;;;;;;;2.00;0.83;;;23.70;79.10;;;;;;5097175;28;20439;-80
2022/07/06 11:04:07;;;;;;;1.67;0.90;;;23.60;77.90;;;;;;5105408;28;20460;-79
2022/07/06 11:06:35;;;;;;;3.17;0.90;;;23.60;78.50;;;;;;5093172;28;20535;-77
2022/07/06 11:09:11;;;;;;;2.93;0.90;;;23.70;79.50;;;;;;5094055;28;20895;-80
2022/07/06 11:11:45;;;;;;;5.43;0.93;;;23.70;79.10;;;;;;5098655;28;20865;-78
2022/07/06 11:14:15;;;;;;;2.53;1.20;;;23.60;79.30;;;;;;5091723;28;20464;-78
2022/07/06 11:17:02;;;;;;;3.37;0.90;;;23.60;79.70;;;;;;5090659;28;20800;-77
2022/07/06 11:19:29;;;;;;;3.30;1.00;;;23.60;79.90;;;;;;5100090;28;20476;-81
2022/07/06 11:21:58;;;;;;;4.00;1.63;;;23.50;80.60;;;;;;5096815;28;20448;-78
2022/07/06 11:24:29;;;;;;;10.57;1.53;;;23.10;82.30;;;;;;5096820;28;20497;-79
2022/07/06 11:26:58;;;;;;;5.03;1.23;;;23.00;83.30;;;;;;5091428;28;20556;-77
2022/07/06 11:29:27;;;;;;;4.07;1.10;;;22.90;84.00;;;;;;5095357;28;20539;-80
2022/07/06 11:31:55;;;;;;;3.10;1.23;;;23.00;84.00;;;;;;5084358;28;20572;-76
2022/07/06 11:34:24;;;;;;;2.83;0.80;;;22.60;82.30;;;;;;5094103;28;20555;-78
2022/07/06 11:36:56;;;;;;;4.23;1.10;;;22.60;83.40;;;;;;5103580;28;20459;-79
2022/07/06 11:39:23;;;;;;;2.50;0.93;;;22.60;82.20;;;;;;5104107;28;20447;-79
2022/07/06 11:41:51;;;;;;;6.50;1.20;;;22.60;82.70;;;;;;5094083;28;20479;-77
2022/07/06 11:44:19;;;;;;;2.27;0.90;;;22.80;82.40;;;;;;5090009;28;21281;-79
2022/07/06 11:46:46;;;;;;;2.03;0.60;;;23.00;81.10;;;;;;5095499;28;20490;-78
2022/07/06 11:49:13;;;;;;;5.63;1.40;;;23.40;80.60;;;;;;5095501;28;20791;-80
2022/07/06 11:51:48;;;;;;;2.07;0.80;;;23.70;79.20;;;;;;5091596;28;20516;-78
2022/07/06 11:54:16;;;;;;;4.03;1.00;;;23.60;79.50;;;;;;5095311;28;20463;-77
2022/07/06 11:57:09;;;;;;;2.00;0.90;;;23.70;79.50;;;;;;5108292;28;20469;-81
2022/07/06 11:59:38;;;;;;;2.03;0.70;;;23.50;79.20;;;;;;5089439;28;20449;-80
2022/07/06 12:02:06;;;;;;;4.57;1.00;;;23.50;77.70;;;;;;5094754;28;20425;-80
2022/07/06 12:04:35;;;;;;;1.77;0.83;;;23.50;77.50;;;;;;5082265;28;20445;-76
2022/07/06 12:07:03;;;;;;;1.90;0.90;;;23.50;77.00;;;;;;5090741;28;20858;-76
2022/07/06 12:09:31;;;;;;;1.40;1.00;;;23.60;77.20;;;;;;5092279;28;20838;-79
2022/07/06 12:12:02;;;;;;;3.10;0.83;;;23.60;77.60;;;;;;5095812;28;20481;-79
2022/07/06 12:14:31;;;;;;;3.17;1.27;;;23.50;77.40;;;;;;5110380;28;20528;-76
2022/07/06 12:17:04;;;;;;;2.83;0.87;;;23.50;78.00;;;;;;5104714;28;20441;-78
2022/07/06 12:19:31;;;;;;;2.17;0.87;;;23.40;79.30;;;;;;5089501;28;20487;-78
2022/07/06 12:21:58;;;;;;;2.30;0.87;;;23.50;79.50;;;;;;5095347;28;20444;-78
2022/07/06 12:24:27;;;;;;;2.80;0.90;;;23.60;79.50;;;;;;5085109;28;20457;-76
2022/07/06 12:26:55;;;;;;;4.53;0.70;;;23.80;79.60;;;;;;5090959;28;20444;-78
2022/07/06 12:29:24;;;;;;;4.30;0.87;;;23.70;78.90;;;;;;5095028;28;20440;-78
2022/07/06 12:31:52;;;;;;;3.07;0.83;;;23.90;79.30;;;;;;5080401;28;20489;-77
2022/07/06 12:34:23;;;;;;;1.93;0.60;;;24.00;77.50;;;;;;5106343;28;20468;-77
2022/07/06 12:36:52;;;;;;;3.40;2.03;;;24.10;78.10;;;;;;5094470;28;20436;-78
2022/07/06 12:39:21;;;;;;;1.20;0.60;;;24.40;77.70;;;;;;5096343;28;21297;-77
2022/07/06 12:41:50;;;;;;;3.27;1.27;;;24.30;77.00;;;;;;5094812;28;20503;-78
2022/07/06 12:44:19;;;;;;;2.33;1.63;;;24.20;78.90;;;;;;5093538;28;20892;-77
2022/07/06 12:46:48;;;;;;;5.13;1.20;;;24.10;78.30;;;;;;5090540;28;20447;-77
2022/07/06 12:49:18;;;;;;;1.90;1.00;;;24.10;79.30;;;;;;5094712;28;20436;-79
2022/07/06 12:51:56;;;;;;;4.00;1.13;;;24.20;79.60;;;;;;5094151;28;20563;-80
2022/07/06 12:54:24;;;;;;;7.30;5.30;;;24.20;79.20;;;;;;5094147;28;20542;-79
2022/07/06 12:56:59;;;;;;;5.03;1.10;;;24.20;78.40;;;;;;5095612;28;20452;-77
2022/07/06 12:59:26;;;;;;;2.97;1.53;;;24.20;78.60;;;;;;5092399;28;20479;-77